sensor_id;sensor_type;location;lat;lon;timestamp;pressure;altitude;pressure_sealevel;temperature
68939;BMP180;59064;45.294;11.816;2022-11-03T00:02:03;102085.20;;;15.24
68939;BMP180;59064;45.294;11.816;2022-11-03T00:04:29;102085.80;;;15.20
68939;BMP180;59064;45.294;11.816;2022-11-03T00:06:55;102084.00;;;15.20
68939;BMP180;59064;45.294;11.816;2022-11-03T00:09:22;102088.00;;;15.10
68939;BMP180;59064;45.294;11.816;2022-11-03T00:11:50;102083.60;;;15.12
68939;BMP180;59064;45.294;11.816;2022-11-03T00:14:17;102087.00;;;15.20
68939;BMP180;59064;45.294;11.816;2022-11-03T00:16:44;102083.00;;;15.10
68939;BMP180;59064;45.294;11.816;2022-11-03T00:19:10;102075.60;;;15.10
68939;BMP180;59064;45.294;11.816;2022-11-03T00:21:38;102074.20;;;15.10
68939;BMP180;59064;45.294;11.816;2022-11-03T00:24:04;102070.20;;;15.10
68939;BMP180;59064;45.294;11.816;2022-11-03T00:26:32;102070.40;;;15.10
68939;BMP180;59064;45.294;11.816;2022-11-03T00:29:01;102066.80;;;15.10
68939;BMP180;59064;45.294;11.816;2022-11-03T00:31:33;102060.60;;;15.00
68939;BMP180;59064;45.294;11.816;2022-11-03T00:34:00;102065.80;;;14.90
68939;BMP180;59064;45.294;11.816;2022-11-03T00:36:30;102071.00;;;14.90
68939;BMP180;59064;45.294;11.816;2022-11-03T00:38:57;102070.20;;;14.90
68939;BMP180;59064;45.294;11.816;2022-11-03T00:41:24;102071.60;;;14.80
68939;BMP180;59064;45.294;11.816;2022-11-03T00:43:51;102070.60;;;14.80
68939;BMP180;59064;45.294;11.816;2022-11-03T00:46:19;102068.80;;;14.80
68939;BMP180;59064;45.294;11.816;2022-11-03T00:48:45;102067.40;;;14.84
68939;BMP180;59064;45.294;11.816;2022-11-03T00:51:23;102068.40;;;14.80
68939;BMP180;59064;45.294;11.816;2022-11-03T00:53:58;102072.20;;;14.80
68939;BMP180;59064;45.294;11.816;2022-11-03T00:56:30;102071.40;;;14.80
68939;BMP180;59064;45.294;11.816;2022-11-03T00:58:58;102067.20;;;14.80
68939;BMP180;59064;45.294;11.816;2022-11-03T01:01:27;102061.40;;;14.80
68939;BMP180;59064;45.294;11.816;2022-11-03T01:03:55;102064.00;;;14.80
68939;BMP180;59064;45.294;11.816;2022-11-03T01:06:46;102063.80;;;14.80
68939;BMP180;59064;45.294;11.816;2022-11-03T01:12:09;102058.80;;;14.80
68939;BMP180;59064;45.294;11.816;2022-11-03T01:17:12;102053.80;;;14.80
68939;BMP180;59064;45.294;11.816;2022-11-03T01:19:39;102048.60;;;14.80
68939;BMP180;59064;45.294;11.816;2022-11-03T01:22:05;102050.60;;;14.80
68939;BMP180;59064;45.294;11.816;2022-11-03T01:24:30;102047.40;;;14.80
68939;BMP180;59064;45.294;11.816;2022-11-03T01:26:56;102047.40;;;14.80
68939;BMP180;59064;45.294;11.816;2022-11-03T01:29:22;102039.40;;;14.90
68939;BMP180;59064;45.294;11.816;2022-11-03T01:31:48;102037.20;;;14.90
68939;BMP180;59064;45.294;11.816;2022-11-03T01:34:16;102034.20;;;14.90
68939;BMP180;59064;45.294;11.816;2022-11-03T01:36:43;102026.20;;;14.90
68939;BMP180;59064;45.294;11.816;2022-11-03T01:39:15;102027.00;;;14.90
68939;BMP180;59064;45.294;11.816;2022-11-03T01:41:44;102029.00;;;14.80
68939;BMP180;59064;45.294;11.816;2022-11-03T01:49:22;102023.20;;;14.70
68939;BMP180;59064;45.294;11.816;2022-11-03T01:52:10;102021.40;;;14.70
68939;BMP180;59064;45.294;11.816;2022-11-03T01:54:41;102022.00;;;14.64
68939;BMP180;59064;45.294;11.816;2022-11-03T01:57:16;102022.60;;;14.60
68939;BMP180;59064;45.294;11.816;2022-11-03T01:59:43;102014.60;;;14.60
68939;BMP180;59064;45.294;11.816;2022-11-03T02:02:10;102011.60;;;14.64
68939;BMP180;59064;45.294;11.816;2022-11-03T02:04:36;102004.80;;;14.70
68939;BMP180;59064;45.294;11.816;2022-11-03T02:07:28;101997.60;;;14.70
68939;BMP180;59064;45.294;11.816;2022-11-03T02:09:56;101992.40;;;14.70
68939;BMP180;59064;45.294;11.816;2022-11-03T02:12:22;101993.80;;;14.70
68939;BMP180;59064;45.294;11.816;2022-11-03T02:14:53;101993.60;;;14.70
68939;BMP180;59064;45.294;11.816;2022-11-03T02:17:21;101994.80;;;14.70
68939;BMP180;59064;45.294;11.816;2022-11-03T02:20:12;101992.00;;;14.70
68939;BMP180;59064;45.294;11.816;2022-11-03T02:25:50;101986.20;;;14.70
68939;BMP180;59064;45.294;11.816;2022-11-03T02:28:23;101985.40;;;14.72
68939;BMP180;59064;45.294;11.816;2022-11-03T02:36:04;101977.20;;;14.88
68939;BMP180;59064;45.294;11.816;2022-11-03T02:38:32;101966.80;;;14.82
68939;BMP180;59064;45.294;11.816;2022-11-03T02:41:04;101966.20;;;14.84
68939;BMP180;59064;45.294;11.816;2022-11-03T02:43:31;101962.80;;;14.80
68939;BMP180;59064;45.294;11.816;2022-11-03T02:45:57;101962.80;;;14.80
68939;BMP180;59064;45.294;11.816;2022-11-03T02:48:23;101959.80;;;14.80
68939;BMP180;59064;45.294;11.816;2022-11-03T02:50:49;101959.20;;;14.80
68939;BMP180;59064;45.294;11.816;2022-11-03T02:53:15;101962.20;;;14.72
68939;BMP180;59064;45.294;11.816;2022-11-03T02:56:06;101960.20;;;14.70
68939;BMP180;59064;45.294;11.816;2022-11-03T02:58:58;101966.20;;;14.70
68939;BMP180;59064;45.294;11.816;2022-11-03T03:02:03;101967.20;;;14.70
68939;BMP180;59064;45.294;11.816;2022-11-03T03:04:36;101970.80;;;14.70
68939;BMP180;59064;45.294;11.816;2022-11-03T03:07:35;101965.80;;;14.72
68939;BMP180;59064;45.294;11.816;2022-11-03T03:10:20;101968.20;;;14.72
68939;BMP180;59064;45.294;11.816;2022-11-03T03:12:54;101963.40;;;14.74
68939;BMP180;59064;45.294;11.816;2022-11-03T03:15:34;101964.20;;;14.70
68939;BMP180;59064;45.294;11.816;2022-11-03T03:18:29;101965.80;;;14.74
68939;BMP180;59064;45.294;11.816;2022-11-03T03:21:02;101961.00;;;14.80
68939;BMP180;59064;45.294;11.816;2022-11-03T03:23:36;101959.40;;;14.80
68939;BMP180;59064;45.294;11.816;2022-11-03T03:26:48;101961.80;;;14.80
68939;BMP180;59064;45.294;11.816;2022-11-03T03:29:17;101966.80;;;14.80
68939;BMP180;59064;45.294;11.816;2022-11-03T03:31:52;101963.80;;;14.78
68939;BMP180;59064;45.294;11.816;2022-11-03T03:34:20;101962.00;;;14.70
68939;BMP180;59064;45.294;11.816;2022-11-03T03:36:48;101959.00;;;14.70
68939;BMP180;59064;45.294;11.816;2022-11-03T03:39:17;101962.60;;;14.70
68939;BMP180;59064;45.294;11.816;2022-11-03T03:41:46;101962.40;;;14.70
68939;BMP180;59064;45.294;11.816;2022-11-03T03:44:13;101958.80;;;14.70
68939;BMP180;59064;45.294;11.816;2022-11-03T03:47:23;101961.80;;;14.70
68939;BMP180;59064;45.294;11.816;2022-11-03T03:49:50;101965.60;;;14.70
68939;BMP180;59064;45.294;11.816;2022-11-03T03:52:16;101963.60;;;14.72
68939;BMP180;59064;45.294;11.816;2022-11-03T03:54:41;101962.00;;;14.80
68939;BMP180;59064;45.294;11.816;2022-11-03T03:57:13;101961.80;;;14.80
68939;BMP180;59064;45.294;11.816;2022-11-03T03:59:41;101964.20;;;14.80
68939;BMP180;59064;45.294;11.816;2022-11-03T04:02:06;101958.60;;;14.80
68939;BMP180;59064;45.294;11.816;2022-11-03T04:04:32;101957.20;;;14.80
68939;BMP180;59064;45.294;11.816;2022-11-03T04:06:58;101955.60;;;14.80
68939;BMP180;59064;45.294;11.816;2022-11-03T04:09:53;101957.20;;;14.80
68939;BMP180;59064;45.294;11.816;2022-11-03T04:12:18;101954.40;;;14.80
68939;BMP180;59064;45.294;11.816;2022-11-03T04:15:02;101956.80;;;14.78
68939;BMP180;59064;45.294;11.816;2022-11-03T04:17:48;101961.80;;;14.78
68939;BMP180;59064;45.294;11.816;2022-11-03T04:20:33;101960.60;;;14.70
68939;BMP180;59064;45.294;11.816;2022-11-03T04:23:18;101959.20;;;14.74
68939;BMP180;59064;45.294;11.816;2022-11-03T04:25:51;101957.40;;;14.70
68939;BMP180;59064;45.294;11.816;2022-11-03T04:28:17;101957.20;;;14.70
68939;BMP180;59064;45.294;11.816;2022-11-03T04:30:43;101953.60;;;14.70
68939;BMP180;59064;45.294;11.816;2022-11-03T04:33:17;101953.60;;;14.70
68939;BMP180;59064;45.294;11.816;2022-11-03T04:35:45;101950.00;;;14.70
68939;BMP180;59064;45.294;11.816;2022-11-03T04:40:52;101957.00;;;14.76
68939;BMP180;59064;45.294;11.816;2022-11-03T04:43:22;101953.40;;;14.80
68939;BMP180;59064;45.294;11.816;2022-11-03T04:45:48;101952.40;;;14.80
68939;BMP180;59064;45.294;11.816;2022-11-03T04:48:20;101946.80;;;14.74
68939;BMP180;59064;45.294;11.816;2022-11-03T04:50:48;101950.20;;;14.70
68939;BMP180;59064;45.294;11.816;2022-11-03T04:53:18;101947.60;;;14.70
68939;BMP180;59064;45.294;11.816;2022-11-03T04:55:46;101947.40;;;14.70
68939;BMP180;59064;45.294;11.816;2022-11-03T04:58:25;101942.40;;;14.70
68939;BMP180;59064;45.294;11.816;2022-11-03T05:00:55;101942.80;;;14.70
68939;BMP180;59064;45.294;11.816;2022-11-03T05:03:25;101940.00;;;14.70
68939;BMP180;59064;45.294;11.816;2022-11-03T05:05:51;101937.80;;;14.70
68939;BMP180;59064;45.294;11.816;2022-11-03T05:08:18;101929.80;;;14.80
68939;BMP180;59064;45.294;11.816;2022-11-03T05:10:45;101929.80;;;14.80
68939;BMP180;59064;45.294;11.816;2022-11-03T05:13:26;101930.00;;;14.80
68939;BMP180;59064;45.294;11.816;2022-11-03T05:16:04;101935.80;;;14.80
68939;BMP180;59064;45.294;11.816;2022-11-03T05:18:34;101932.20;;;14.80
68939;BMP180;59064;45.294;11.816;2022-11-03T05:21:11;101928.00;;;14.80
68939;BMP180;59064;45.294;11.816;2022-11-03T05:23:41;101925.80;;;14.80
68939;BMP180;59064;45.294;11.816;2022-11-03T05:26:31;101931.00;;;14.80
68939;BMP180;59064;45.294;11.816;2022-11-03T05:29:09;101926.40;;;14.80
68939;BMP180;59064;45.294;11.816;2022-11-03T05:31:40;101925.20;;;14.78
68939;BMP180;59064;45.294;11.816;2022-11-03T05:36:43;101923.40;;;14.70
68939;BMP180;59064;45.294;11.816;2022-11-03T05:39:30;101921.20;;;14.70
68939;BMP180;59064;45.294;11.816;2022-11-03T05:41:59;101918.20;;;14.70
68939;BMP180;59064;45.294;11.816;2022-11-03T05:44:36;101917.60;;;14.70
68939;BMP180;59064;45.294;11.816;2022-11-03T05:47:17;101917.00;;;14.70
68939;BMP180;59064;45.294;11.816;2022-11-03T05:49:46;101917.60;;;14.70
68939;BMP180;59064;45.294;11.816;2022-11-03T05:52:35;101916.20;;;14.70
68939;BMP180;59064;45.294;11.816;2022-11-03T05:55:01;101915.00;;;14.70
68939;BMP180;59064;45.294;11.816;2022-11-03T05:57:28;101913.20;;;14.70
68939;BMP180;59064;45.294;11.816;2022-11-03T05:59:55;101913.80;;;14.70
68939;BMP180;59064;45.294;11.816;2022-11-03T06:02:40;101917.00;;;14.70
68939;BMP180;59064;45.294;11.816;2022-11-03T06:05:16;101914.40;;;14.70
68939;BMP180;59064;45.294;11.816;2022-11-03T06:07:43;101914.20;;;14.70
68939;BMP180;59064;45.294;11.816;2022-11-03T06:10:33;101911.60;;;14.70
68939;BMP180;59064;45.294;11.816;2022-11-03T06:13:11;101917.00;;;14.70
68939;BMP180;59064;45.294;11.816;2022-11-03T06:15:41;101915.60;;;14.70
68939;BMP180;59064;45.294;11.816;2022-11-03T06:18:21;101912.40;;;14.80
68939;BMP180;59064;45.294;11.816;2022-11-03T06:20:57;101910.80;;;14.80
68939;BMP180;59064;45.294;11.816;2022-11-03T06:23:24;101919.80;;;14.80
68939;BMP180;59064;45.294;11.816;2022-11-03T06:25:54;101911.80;;;14.80
68939;BMP180;59064;45.294;11.816;2022-11-03T06:28:25;101910.00;;;14.80
68939;BMP180;59064;45.294;11.816;2022-11-03T06:30:51;101904.20;;;14.76
68939;BMP180;59064;45.294;11.816;2022-11-03T06:33:29;101903.60;;;14.70
68939;BMP180;59064;45.294;11.816;2022-11-03T06:36:10;101913.60;;;14.64
68939;BMP180;59064;45.294;11.816;2022-11-03T06:38:37;101920.00;;;14.60
68939;BMP180;59064;45.294;11.816;2022-11-03T06:41:03;101921.20;;;14.64
68939;BMP180;59064;45.294;11.816;2022-11-03T06:43:40;101918.80;;;14.70
68939;BMP180;59064;45.294;11.816;2022-11-03T06:46:24;101920.20;;;14.70
68939;BMP180;59064;45.294;11.816;2022-11-03T06:48:57;101915.60;;;14.70
68939;BMP180;59064;45.294;11.816;2022-11-03T06:51:26;101919.80;;;14.80
68939;BMP180;59064;45.294;11.816;2022-11-03T06:53:54;101922.20;;;14.80
68939;BMP180;59064;45.294;11.816;2022-11-03T06:56:25;101921.40;;;14.86
68939;BMP180;59064;45.294;11.816;2022-11-03T06:58:54;101923.60;;;14.90
68939;BMP180;59064;45.294;11.816;2022-11-03T07:01:28;101920.00;;;14.98
68939;BMP180;59064;45.294;11.816;2022-11-03T07:04:10;101921.00;;;15.00
68939;BMP180;59064;45.294;11.816;2022-11-03T07:06:37;101922.60;;;15.10
68939;BMP180;59064;45.294;11.816;2022-11-03T07:09:06;101929.40;;;15.10
68939;BMP180;59064;45.294;11.816;2022-11-03T07:11:46;101927.60;;;15.14
68939;BMP180;59064;45.294;11.816;2022-11-03T07:14:31;101931.60;;;15.16
68939;BMP180;59064;45.294;11.816;2022-11-03T07:17:04;101932.00;;;15.14
68939;BMP180;59064;45.294;11.816;2022-11-03T07:19:40;101932.60;;;15.10
68939;BMP180;59064;45.294;11.816;2022-11-03T07:22:24;101936.20;;;15.10
68939;BMP180;59064;45.294;11.816;2022-11-03T07:24:56;101934.40;;;15.20
68939;BMP180;59064;45.294;11.816;2022-11-03T07:27:30;101938.20;;;15.20
68939;BMP180;59064;45.294;11.816;2022-11-03T07:30:40;101942.00;;;15.30
68939;BMP180;59064;45.294;11.816;2022-11-03T07:33:25;101944.20;;;15.36
68939;BMP180;59064;45.294;11.816;2022-11-03T07:35:52;101946.80;;;15.40
68939;BMP180;59064;45.294;11.816;2022-11-03T07:38:23;101950.00;;;15.38
68939;BMP180;59064;45.294;11.816;2022-11-03T07:40:52;101955.60;;;15.30
68939;BMP180;59064;45.294;11.816;2022-11-03T07:43:24;101957.20;;;15.30
68939;BMP180;59064;45.294;11.816;2022-11-03T07:45:54;101955.80;;;15.30
68939;BMP180;59064;45.294;11.816;2022-11-03T07:48:26;101955.60;;;15.30
68939;BMP180;59064;45.294;11.816;2022-11-03T07:50:58;101952.20;;;15.30
68939;BMP180;59064;45.294;11.816;2022-11-03T07:53:39;101956.60;;;15.30
68939;BMP180;59064;45.294;11.816;2022-11-03T07:56:20;101955.80;;;15.30
68939;BMP180;59064;45.294;11.816;2022-11-03T08:01:53;101945.60;;;15.40
68939;BMP180;59064;45.294;11.816;2022-11-03T08:04:26;101939.80;;;15.50
68939;BMP180;59064;45.294;11.816;2022-11-03T08:06:53;101939.40;;;15.60
68939;BMP180;59064;45.294;11.816;2022-11-03T08:09:19;101926.80;;;15.70
68939;BMP180;59064;45.294;11.816;2022-11-03T08:11:45;101929.80;;;15.90
68939;BMP180;59064;45.294;11.816;2022-11-03T08:14:12;101923.60;;;16.02
68939;BMP180;59064;45.294;11.816;2022-11-03T08:16:38;101919.40;;;16.20
68939;BMP180;59064;45.294;11.816;2022-11-03T08:19:04;101917.40;;;16.34
68939;BMP180;59064;45.294;11.816;2022-11-03T08:21:29;101919.80;;;16.50
68939;BMP180;59064;45.294;11.816;2022-11-03T08:23:55;101916.40;;;16.60
68939;BMP180;59064;45.294;11.816;2022-11-03T08:26:21;101918.00;;;16.80
68939;BMP180;59064;45.294;11.816;2022-11-03T08:28:47;101914.20;;;16.90
68939;BMP180;59064;45.294;11.816;2022-11-03T08:31:12;101912.40;;;17.00
68939;BMP180;59064;45.294;11.816;2022-11-03T08:33:39;101911.00;;;17.08
68939;BMP180;59064;45.294;11.816;2022-11-03T08:36:05;101908.20;;;17.00
68939;BMP180;59064;45.294;11.816;2022-11-03T08:38:31;101906.20;;;16.90
68939;BMP180;59064;45.294;11.816;2022-11-03T08:40:56;101908.00;;;16.90
68939;BMP180;59064;45.294;11.816;2022-11-03T08:43:27;101907.20;;;17.00
68939;BMP180;59064;45.294;11.816;2022-11-03T08:45:53;101910.20;;;16.90
68939;BMP180;59064;45.294;11.816;2022-11-03T08:48:24;101912.20;;;16.90
68939;BMP180;59064;45.294;11.816;2022-11-03T08:50:54;101908.60;;;16.80
68939;BMP180;59064;45.294;11.816;2022-11-03T08:53:26;101904.60;;;16.70
68939;BMP180;59064;45.294;11.816;2022-11-03T08:55:53;101905.60;;;16.68
68939;BMP180;59064;45.294;11.816;2022-11-03T08:58:19;101904.80;;;16.60
68939;BMP180;59064;45.294;11.816;2022-11-03T09:00:46;101901.00;;;16.60
68939;BMP180;59064;45.294;11.816;2022-11-03T09:03:13;101893.20;;;16.60
68939;BMP180;59064;45.294;11.816;2022-11-03T09:05:39;101888.00;;;16.60
68939;BMP180;59064;45.294;11.816;2022-11-03T09:08:05;101889.80;;;16.60
68939;BMP180;59064;45.294;11.816;2022-11-03T09:10:31;101885.00;;;16.68
68939;BMP180;59064;45.294;11.816;2022-11-03T09:12:57;101879.20;;;16.70
68939;BMP180;59064;45.294;11.816;2022-11-03T09:15:22;101876.40;;;16.70
68939;BMP180;59064;45.294;11.816;2022-11-03T09:17:48;101875.40;;;16.80
68939;BMP180;59064;45.294;11.816;2022-11-03T09:20:14;101871.60;;;16.90
68939;BMP180;59064;45.294;11.816;2022-11-03T09:22:39;101866.20;;;17.00
68939;BMP180;59064;45.294;11.816;2022-11-03T09:25:06;101870.80;;;17.10
68939;BMP180;59064;45.294;11.816;2022-11-03T09:27:32;101860.20;;;17.10
68939;BMP180;59064;45.294;11.816;2022-11-03T09:29:57;101860.00;;;17.20
68939;BMP180;59064;45.294;11.816;2022-11-03T09:32:24;101861.60;;;17.40
68939;BMP180;59064;45.294;11.816;2022-11-03T09:34:50;101857.20;;;17.62
68939;BMP180;59064;45.294;11.816;2022-11-03T09:37:16;101860.20;;;17.90
68939;BMP180;59064;45.294;11.816;2022-11-03T09:39:42;101866.00;;;18.10
68939;BMP180;59064;45.294;11.816;2022-11-03T09:42:11;101864.20;;;18.10
68939;BMP180;59064;45.294;11.816;2022-11-03T09:44:37;101859.60;;;18.10
68939;BMP180;59064;45.294;11.816;2022-11-03T09:47:04;101854.40;;;18.10
68939;BMP180;59064;45.294;11.816;2022-11-03T09:49:32;101851.80;;;18.20
68939;BMP180;59064;45.294;11.816;2022-11-03T09:52:02;101854.80;;;18.20
68939;BMP180;59064;45.294;11.816;2022-11-03T09:54:28;101854.40;;;18.20
68939;BMP180;59064;45.294;11.816;2022-11-03T09:57:10;101847.00;;;18.20
68939;BMP180;59064;45.294;11.816;2022-11-03T09:59:36;101846.80;;;18.20
68939;BMP180;59064;45.294;11.816;2022-11-03T10:02:02;101843.40;;;18.22
68939;BMP180;59064;45.294;11.816;2022-11-03T10:04:36;101835.40;;;18.30
68939;BMP180;59064;45.294;11.816;2022-11-03T10:07:01;101838.00;;;18.30
68939;BMP180;59064;45.294;11.816;2022-11-03T10:09:29;101834.60;;;18.40
68939;BMP180;59064;45.294;11.816;2022-11-03T10:11:54;101830.60;;;18.40
68939;BMP180;59064;45.294;11.816;2022-11-03T10:14:21;101825.20;;;18.46
68939;BMP180;59064;45.294;11.816;2022-11-03T10:16:58;101821.20;;;18.50
68939;BMP180;59064;45.294;11.816;2022-11-03T10:19:25;101814.20;;;18.60
68939;BMP180;59064;45.294;11.816;2022-11-03T10:21:51;101808.20;;;18.76
68939;BMP180;59064;45.294;11.816;2022-11-03T10:24:17;101803.00;;;18.80
68939;BMP180;59064;45.294;11.816;2022-11-03T10:26:44;101803.40;;;19.00
68939;BMP180;59064;45.294;11.816;2022-11-03T10:29:23;101796.60;;;19.10
68939;BMP180;59064;45.294;11.816;2022-11-03T10:31:53;101792.20;;;19.36
68939;BMP180;59064;45.294;11.816;2022-11-03T10:34:38;101785.80;;;19.60
68939;BMP180;59064;45.294;11.816;2022-11-03T10:37:23;101784.00;;;19.60
68939;BMP180;59064;45.294;11.816;2022-11-03T10:39:58;101779.40;;;19.64
68939;BMP180;59064;45.294;11.816;2022-11-03T10:42:29;101778.60;;;19.96
68939;BMP180;59064;45.294;11.816;2022-11-03T10:45:17;101769.60;;;20.30
68939;BMP180;59064;45.294;11.816;2022-11-03T10:47:42;101768.40;;;20.50
68939;BMP180;59064;45.294;11.816;2022-11-03T10:50:21;101772.20;;;20.58
68939;BMP180;59064;45.294;11.816;2022-11-03T10:52:49;101772.40;;;20.60
68939;BMP180;59064;45.294;11.816;2022-11-03T10:55:16;101771.40;;;20.50
68939;BMP180;59064;45.294;11.816;2022-11-03T10:57:42;101768.20;;;20.62
68939;BMP180;59064;45.294;11.816;2022-11-03T11:00:16;101763.40;;;20.90
68939;BMP180;59064;45.294;11.816;2022-11-03T11:02:46;101755.60;;;21.20
68939;BMP180;59064;45.294;11.816;2022-11-03T11:05:22;101757.00;;;21.30
68939;BMP180;59064;45.294;11.816;2022-11-03T11:07:52;101754.80;;;21.16
68939;BMP180;59064;45.294;11.816;2022-11-03T11:10:29;101747.60;;;21.20
68939;BMP180;59064;45.294;11.816;2022-11-03T11:15:39;101742.40;;;21.70
68939;BMP180;59064;45.294;11.816;2022-11-03T11:18:04;101741.60;;;21.84
68939;BMP180;59064;45.294;11.816;2022-11-03T11:20:40;101744.00;;;21.70
68939;BMP180;59064;45.294;11.816;2022-11-03T11:31:28;101733.60;;;20.60
68939;BMP180;59064;45.294;11.816;2022-11-03T11:42:11;101728.40;;;19.40
68939;BMP180;59064;45.294;11.816;2022-11-03T11:47:53;101718.80;;;19.20
68939;BMP180;59064;45.294;11.816;2022-11-03T11:50:25;101722.40;;;19.10
68939;BMP180;59064;45.294;11.816;2022-11-03T11:52:59;101722.60;;;18.96
68939;BMP180;59064;45.294;11.816;2022-11-03T11:55:39;101721.20;;;18.90
68939;BMP180;59064;45.294;11.816;2022-11-03T12:00:52;101715.20;;;18.78
68939;BMP180;59064;45.294;11.816;2022-11-03T12:03:41;101705.20;;;18.72
68939;BMP180;59064;45.294;11.816;2022-11-03T12:06:12;101694.80;;;18.70
68939;BMP180;59064;45.294;11.816;2022-11-03T12:08:38;101697.20;;;18.70
68939;BMP180;59064;45.294;11.816;2022-11-03T12:11:11;101694.40;;;18.70
68939;BMP180;59064;45.294;11.816;2022-11-03T12:13:46;101691.00;;;18.60
68939;BMP180;59064;45.294;11.816;2022-11-03T12:16:35;101696.80;;;18.60
68939;BMP180;59064;45.294;11.816;2022-11-03T12:22:02;101689.80;;;18.50
68939;BMP180;59064;45.294;11.816;2022-11-03T12:26:58;101683.20;;;18.50
68939;BMP180;59064;45.294;11.816;2022-11-03T12:29:24;101672.00;;;18.48
68939;BMP180;59064;45.294;11.816;2022-11-03T12:31:50;101666.20;;;18.40
68939;BMP180;59064;45.294;11.816;2022-11-03T12:34:16;101664.80;;;18.40
68939;BMP180;59064;45.294;11.816;2022-11-03T12:36:43;101658.40;;;18.50
68939;BMP180;59064;45.294;11.816;2022-11-03T12:39:10;101654.00;;;18.50
68939;BMP180;59064;45.294;11.816;2022-11-03T12:41:36;101648.40;;;18.56
68939;BMP180;59064;45.294;11.816;2022-11-03T12:44:01;101646.00;;;18.56
68939;BMP180;59064;45.294;11.816;2022-11-03T12:46:27;101645.20;;;18.50
68939;BMP180;59064;45.294;11.816;2022-11-03T12:48:53;101633.40;;;18.60
68939;BMP180;59064;45.294;11.816;2022-11-03T12:51:22;101629.40;;;18.50
68939;BMP180;59064;45.294;11.816;2022-11-03T12:53:48;101624.80;;;18.50
68939;BMP180;59064;45.294;11.816;2022-11-03T12:56:15;101614.00;;;18.50
68939;BMP180;59064;45.294;11.816;2022-11-03T12:58:41;101617.20;;;18.50
68939;BMP180;59064;45.294;11.816;2022-11-03T13:01:07;101614.60;;;18.60
68939;BMP180;59064;45.294;11.816;2022-11-03T13:03:34;101602.40;;;18.60
68939;BMP180;59064;45.294;11.816;2022-11-03T13:06:02;101597.00;;;18.60
68939;BMP180;59064;45.294;11.816;2022-11-03T13:08:30;101591.40;;;18.60
68939;BMP180;59064;45.294;11.816;2022-11-03T13:10:57;101586.80;;;18.60
68939;BMP180;59064;45.294;11.816;2022-11-03T13:13:23;101581.60;;;18.60
68939;BMP180;59064;45.294;11.816;2022-11-03T13:15:49;101576.20;;;18.60
68939;BMP180;59064;45.294;11.816;2022-11-03T13:18:20;101577.40;;;18.60
68939;BMP180;59064;45.294;11.816;2022-11-03T13:20:46;101580.60;;;18.60
68939;BMP180;59064;45.294;11.816;2022-11-03T13:23:12;101578.40;;;18.60
68939;BMP180;59064;45.294;11.816;2022-11-03T13:25:39;101576.80;;;18.70
68939;BMP180;59064;45.294;11.816;2022-11-03T13:28:05;101575.40;;;18.78
68939;BMP180;59064;45.294;11.816;2022-11-03T13:30:31;101575.60;;;18.80
68939;BMP180;59064;45.294;11.816;2022-11-03T13:32:58;101573.00;;;18.76
68939;BMP180;59064;45.294;11.816;2022-11-03T13:35:23;101568.00;;;18.80
68939;BMP180;59064;45.294;11.816;2022-11-03T13:37:49;101560.20;;;18.80
68939;BMP180;59064;45.294;11.816;2022-11-03T13:40:15;101564.60;;;18.80
68939;BMP180;59064;45.294;11.816;2022-11-03T13:42:41;101564.40;;;18.80
68939;BMP180;59064;45.294;11.816;2022-11-03T13:45:07;101557.20;;;18.70
68939;BMP180;59064;45.294;11.816;2022-11-03T13:47:34;101549.60;;;18.68
68939;BMP180;59064;45.294;11.816;2022-11-03T13:50:00;101548.80;;;18.60
68939;BMP180;59064;45.294;11.816;2022-11-03T13:52:27;101547.00;;;18.60
68939;BMP180;59064;45.294;11.816;2022-11-03T13:54:53;101543.20;;;18.56
68939;BMP180;59064;45.294;11.816;2022-11-03T13:57:19;101545.80;;;18.50
68939;BMP180;59064;45.294;11.816;2022-11-03T13:59:45;101542.40;;;18.50
68939;BMP180;59064;45.294;11.816;2022-11-03T14:02:11;101534.00;;;18.40
68939;BMP180;59064;45.294;11.816;2022-11-03T14:04:38;101530.20;;;18.40
68939;BMP180;59064;45.294;11.816;2022-11-03T14:07:05;101529.40;;;18.40
68939;BMP180;59064;45.294;11.816;2022-11-03T14:09:31;101532.80;;;18.40
68939;BMP180;59064;45.294;11.816;2022-11-03T14:11:57;101534.00;;;18.40
68939;BMP180;59064;45.294;11.816;2022-11-03T14:14:41;101538.20;;;18.30
68939;BMP180;59064;45.294;11.816;2022-11-03T14:17:07;101535.60;;;18.30
68939;BMP180;59064;45.294;11.816;2022-11-03T14:19:33;101524.60;;;18.30
68939;BMP180;59064;45.294;11.816;2022-11-03T14:21:59;101517.20;;;18.30
68939;BMP180;59064;45.294;11.816;2022-11-03T14:24:25;101513.40;;;18.30
68939;BMP180;59064;45.294;11.816;2022-11-03T14:26:51;101507.60;;;18.40
68939;BMP180;59064;45.294;11.816;2022-11-03T14:29:17;101503.00;;;18.48
68939;BMP180;59064;45.294;11.816;2022-11-03T14:31:42;101499.80;;;18.50
68939;BMP180;59064;45.294;11.816;2022-11-03T14:34:08;101495.40;;;18.60
68939;BMP180;59064;45.294;11.816;2022-11-03T14:36:34;101496.20;;;18.50
68939;BMP180;59064;45.294;11.816;2022-11-03T14:39:00;101494.80;;;18.50
68939;BMP180;59064;45.294;11.816;2022-11-03T14:41:25;101489.60;;;18.42
68939;BMP180;59064;45.294;11.816;2022-11-03T14:44:10;101484.60;;;18.40
68939;BMP180;59064;45.294;11.816;2022-11-03T14:46:35;101484.00;;;18.30
68939;BMP180;59064;45.294;11.816;2022-11-03T14:49:01;101485.60;;;18.30
68939;BMP180;59064;45.294;11.816;2022-11-03T14:51:28;101485.20;;;18.20
68939;BMP180;59064;45.294;11.816;2022-11-03T14:53:54;101483.60;;;18.10
68939;BMP180;59064;45.294;11.816;2022-11-03T14:56:21;101486.00;;;18.00
68939;BMP180;59064;45.294;11.816;2022-11-03T14:58:46;101483.60;;;17.96
68939;BMP180;59064;45.294;11.816;2022-11-03T15:01:12;101481.80;;;17.90
68939;BMP180;59064;45.294;11.816;2022-11-03T15:03:38;101479.20;;;17.80